createdAt,value
2019-04-29T00:00:04.400Z,59.90
2019-04-29T00:00:35.633Z,59.90
2019-04-29T00:01:06.844Z,59.90
2019-04-29T00:01:39.389Z,60.00
2019-04-29T00:02:10.620Z,59.90
2019-04-29T00:02:41.797Z,60.00
2019-04-29T00:03:13.001Z,59.90
2019-04-29T00:03:44.182Z,59.80
2019-04-29T00:04:15.589Z,59.90
2019-04-29T00:04:46.768Z,59.90
2019-04-29T00:05:17.941Z,59.90
2019-04-29T00:05:49.145Z,59.90
2019-04-29T00:06:20.316Z,59.90
2019-04-29T00:06:53.416Z,59.90
2019-04-29T00:07:24.767Z,59.90
2019-04-29T00:07:55.950Z,59.90
2019-04-29T00:08:27.123Z,59.90
2019-04-29T00:08:58.330Z,59.90
2019-04-29T00:09:31.076Z,60.00
2019-04-29T00:10:02.389Z,59.80
2019-04-29T00:10:33.594Z,59.90
2019-04-29T00:11:04.774Z,59.90
2019-04-29T00:11:36.028Z,59.90
2019-04-29T00:12:07.662Z,59.90
2019-04-29T00:12:39.138Z,59.90
2019-04-29T00:13:10.311Z,59.90
2019-04-29T00:13:41.539Z,60.00
2019-04-29T00:14:12.707Z,59.90
2019-04-29T00:14:43.883Z,59.80
2019-04-29T00:15:15.503Z,60.70
2019-04-29T00:15:46.686Z,59.90
2019-04-29T00:16:17.877Z,59.90
2019-04-29T00:16:49.115Z,59.90
2019-04-29T00:17:20.339Z,59.80
2019-04-29T00:17:51.557Z,59.80
2019-04-29T00:18:22.874Z,59.80
2019-04-29T00:18:54.552Z,59.90
2019-04-29T00:19:25.765Z,59.80
2019-04-29T00:19:57.004Z,59.80
2019-04-29T00:20:28.186Z,59.90
2019-04-29T00:20:59.364Z,59.90
2019-04-29T00:21:30.728Z,59.80
2019-04-29T00:22:02.269Z,59.90
2019-04-29T00:22:33.448Z,59.90
2019-04-29T00:23:04.663Z,59.80
2019-04-29T00:23:36.064Z,59.40
2019-04-29T00:24:07.365Z,59.90
2019-04-29T00:24:38.501Z,59.90
2019-04-29T00:25:10.053Z,59.90
2019-04-29T00:25:41.224Z,59.90
2019-04-29T00:26:12.593Z,59.90
2019-04-29T00:26:43.947Z,59.90
2019-04-29T00:27:15.189Z,59.80
2019-04-29T00:27:46.397Z,60.00
2019-04-29T00:28:17.702Z,59.90
2019-04-29T00:28:50.447Z,60.00
2019-04-29T00:29:22.169Z,59.90
2019-04-29T00:29:53.548Z,59.90
2019-04-29T00:30:24.774Z,59.90
2019-04-29T00:30:55.999Z,59.90
2019-04-29T00:31:27.266Z,59.90
2019-04-29T00:31:58.726Z,60.00
2019-04-29T00:32:30.127Z,59.90
2019-04-29T00:33:01.333Z,59.90
2019-04-29T00:33:32.515Z,59.90
2019-04-29T00:34:03.777Z,59.90
2019-04-29T00:34:35.459Z,59.90
2019-04-29T00:35:06.703Z,60.60
2019-04-29T00:35:37.920Z,59.80
2019-04-29T00:36:09.116Z,59.80
2019-04-29T00:36:40.348Z,59.70
2019-04-29T00:37:11.540Z,59.70
2019-04-29T00:37:43.004Z,59.70
2019-04-29T00:38:14.187Z,60.20
2019-04-29T00:38:45.404Z,59.70
2019-04-29T00:39:16.579Z,59.70
2019-04-29T00:39:47.784Z,59.60
2019-04-29T00:40:19.060Z,59.70
2019-04-29T00:40:50.237Z,59.60
2019-04-29T00:41:21.594Z,59.60
2019-04-29T00:41:52.871Z,59.60
2019-04-29T00:42:24.056Z,59.60
2019-04-29T00:42:55.260Z,59.60
2019-04-29T00:43:26.768Z,59.60
2019-04-29T00:43:58.310Z,59.60
2019-04-29T00:44:29.488Z,59.60
2019-04-29T00:45:00.694Z,59.60
2019-04-29T00:45:31.877Z,59.60
2019-04-29T00:46:03.067Z,59.60
2019-04-29T00:46:34.252Z,59.60
2019-04-29T00:47:05.435Z,59.60
2019-04-29T00:47:36.626Z,59.60
2019-04-29T00:48:08.031Z,59.60
2019-04-29T00:48:39.219Z,59.60
2019-04-29T00:49:10.401Z,59.50
2019-04-29T00:49:41.659Z,59.50
2019-04-29T00:50:12.963Z,59.60
2019-04-29T00:50:44.138Z,59.50
2019-04-29T00:51:15.579Z,60.20
2019-04-29T00:51:46.838Z,59.50
2019-04-29T00:52:18.306Z,59.60
2019-04-29T00:52:49.767Z,59.60
2019-04-29T00:53:21.046Z,59.60
2019-04-29T00:53:52.535Z,59.50
2019-04-29T00:54:24.107Z,59.60
2019-04-29T00:54:55.290Z,59.60
2019-04-29T00:55:26.540Z,60.30
2019-04-29T00:55:57.795Z,59.60
2019-04-29T00:56:29.059Z,59.60
2019-04-29T00:57:01.160Z,59.50
2019-04-29T00:57:32.342Z,59.50
2019-04-29T00:58:03.541Z,59.50
2019-04-29T00:58:35.164Z,59.50
2019-04-29T00:59:06.350Z,59.50
2019-04-29T00:59:37.734Z,59.50
2019-04-29T01:00:08.912Z,59.50
2019-04-29T01:00:40.144Z,59.60
2019-04-29T01:01:11.349Z,59.60
2019-04-29T01:01:42.540Z,60.30
2019-04-29T01:02:13.720Z,59.60
2019-04-29T01:02:44.937Z,59.60
2019-04-29T01:03:16.125Z,59.60
2019-04-29T01:03:47.313Z,59.60
2019-04-29T01:04:18.517Z,60.30
2019-04-29T01:04:49.765Z,59.60
2019-04-29T01:05:20.985Z,59.60
2019-04-29T01:05:52.192Z,59.60
2019-04-29T01:06:23.358Z,59.60
2019-04-29T01:06:54.882Z,59.60
2019-04-29T01:07:26.158Z,59.60
2019-04-29T01:07:57.947Z,59.90
2019-04-29T01:08:29.140Z,59.60
2019-04-29T01:09:00.551Z,59.60
2019-04-29T01:09:32.003Z,59.60
2019-04-29T01:10:03.569Z,59.60
2019-04-29T01:10:34.746Z,59.60
2019-04-29T01:11:06.039Z,59.60
2019-04-29T01:11:37.746Z,59.50
2019-04-29T01:12:09.023Z,59.00
2019-04-29T01:12:40.208Z,59.50
2019-04-29T01:13:11.612Z,59.50
2019-04-29T01:13:42.815Z,59.40
2019-04-29T01:14:14.328Z,59.40
2019-04-29T01:14:45.925Z,59.40
2019-04-29T01:15:17.470Z,59.40
2019-04-29T01:15:48.656Z,59.40
2019-04-29T01:16:20.136Z,59.40
2019-04-29T01:16:51.406Z,59.40
2019-04-29T01:17:22.621Z,59.40
2019-04-29T01:17:53.802Z,59.40
2019-04-29T01:18:25.085Z,59.30
2019-04-29T01:18:56.604Z,59.40
2019-04-29T01:19:27.825Z,59.30
2019-04-29T01:19:59.017Z,59.30
2019-04-29T01:20:30.451Z,59.40
2019-04-29T01:21:01.657Z,59.30
2019-04-29T01:21:32.890Z,59.30
2019-04-29T01:22:04.073Z,59.30
2019-04-29T01:22:35.320Z,59.40
2019-04-29T01:23:06.510Z,59.40
2019-04-29T01:23:38.250Z,59.40
2019-04-29T01:24:09.695Z,59.40
2019-04-29T01:24:40.982Z,59.40
2019-04-29T01:25:12.526Z,59.40
2019-04-29T01:25:43.830Z,59.40
2019-04-29T01:26:15.028Z,59.40
2019-04-29T01:26:48.067Z,59.50
2019-04-29T01:27:19.221Z,59.40
2019-04-29T01:27:50.406Z,59.50
2019-04-29T01:28:21.610Z,59.40
2019-04-29T01:28:53.233Z,59.50
2019-04-29T01:29:24.444Z,59.40
2019-04-29T01:29:55.643Z,59.40
2019-04-29T01:30:26.830Z,59.40
2019-04-29T01:30:58.134Z,59.50
2019-04-29T01:31:29.327Z,59.40
2019-04-29T01:32:00.739Z,59.40
2019-04-29T01:32:31.917Z,59.40
2019-04-29T01:33:03.109Z,59.40
2019-04-29T01:33:34.711Z,59.40
2019-04-29T01:34:05.900Z,59.40
2019-04-29T01:34:37.079Z,59.40
2019-04-29T01:35:08.262Z,59.50
2019-04-29T01:35:39.444Z,59.40
2019-04-29T01:36:11.165Z,59.50
2019-04-29T01:36:42.368Z,59.40
2019-04-29T01:37:13.938Z,59.40
2019-04-29T01:37:45.320Z,60.20
2019-04-29T01:38:16.546Z,59.40
2019-04-29T01:38:48.822Z,59.40
2019-04-29T01:39:20.197Z,59.30
2019-04-29T01:39:51.377Z,59.40
2019-04-29T01:40:22.572Z,59.30
2019-04-29T01:40:54.010Z,59.40
2019-04-29T01:41:25.189Z,59.40
2019-04-29T01:41:56.388Z,59.40
2019-04-29T01:42:27.560Z,59.40
2019-04-29T01:42:59.130Z,59.40
2019-04-29T01:43:30.561Z,59.40
2019-04-29T01:44:01.877Z,59.70
2019-04-29T01:44:33.137Z,59.40
2019-04-29T01:45:04.326Z,59.40
2019-04-29T01:45:35.502Z,59.40
2019-04-29T01:46:06.778Z,59.40
2019-04-29T01:46:38.024Z,59.40
2019-04-29T01:47:09.498Z,59.40
2019-04-29T01:47:40.759Z,59.40
2019-04-29T01:48:12.272Z,59.40
2019-04-29T01:48:43.458Z,59.40
2019-04-29T01:49:14.656Z,59.40
2019-04-29T01:49:45.902Z,59.40
2019-04-29T01:50:17.134Z,59.40
2019-04-29T01:50:48.320Z,59.40
2019-04-29T01:51:19.579Z,59.40
2019-04-29T01:51:50.843Z,59.40
2019-04-29T01:52:22.027Z,59.40
2019-04-29T01:52:53.298Z,59.30
2019-04-29T01:53:24.804Z,59.30
2019-04-29T01:53:56.076Z,59.30
2019-04-29T01:54:27.320Z,59.20
2019-04-29T01:54:58.512Z,59.20
2019-04-29T01:55:29.684Z,59.20
2019-04-29T01:56:00.889Z,59.20
2019-04-29T01:56:32.080Z,59.20
2019-04-29T01:57:03.280Z,59.20
2019-04-29T01:57:34.794Z,59.20
2019-04-29T01:58:06.061Z,59.10
2019-04-29T01:58:37.245Z,59.10
2019-04-29T01:59:08.445Z,59.80
2019-04-29T01:59:39.648Z,59.10
2019-04-29T02:00:12.389Z,59.20
2019-04-29T02:00:43.888Z,59.10
2019-04-29T02:01:15.079Z,59.10
2019-04-29T02:01:46.258Z,59.10
2019-04-29T02:02:17.905Z,59.00
2019-04-29T02:02:49.097Z,59.00
2019-04-29T02:03:20.297Z,59.00
2019-04-29T02:03:51.511Z,59.00
2019-04-29T02:04:23.129Z,59.00
2019-04-29T02:04:54.711Z,59.00
2019-04-29T02:05:25.898Z,59.00
2019-04-29T02:05:57.100Z,59.00
2019-04-29T02:06:28.678Z,59.10
2019-04-29T02:06:59.861Z,59.10
2019-04-29T02:07:31.039Z,59.10
2019-04-29T02:08:02.210Z,59.10
2019-04-29T02:08:33.419Z,59.10
2019-04-29T02:09:04.716Z,59.10
2019-04-29T02:09:35.945Z,59.10
2019-04-29T02:10:07.443Z,59.10
2019-04-29T02:10:38.699Z,59.00
2019-04-29T02:11:09.925Z,59.10
2019-04-29T02:11:41.158Z,59.10
2019-04-29T02:12:12.340Z,59.10
2019-04-29T02:12:43.507Z,59.10
2019-04-29T02:13:14.702Z,59.10
2019-04-29T02:13:46.258Z,59.10
2019-04-29T02:14:17.444Z,59.10
2019-04-29T02:14:48.633Z,59.10
2019-04-29T02:15:20.166Z,59.10
2019-04-29T02:15:51.344Z,59.10
2019-04-29T02:16:22.655Z,59.10
2019-04-29T02:16:53.905Z,59.80
2019-04-29T02:17:25.089Z,59.10
2019-04-29T02:17:56.280Z,59.10
2019-04-29T02:18:27.461Z,59.10
2019-04-29T02:18:58.678Z,59.50
2019-04-29T02:19:30.210Z,59.10
2019-04-29T02:20:01.385Z,59.20
2019-04-29T02:20:32.601Z,59.10
2019-04-29T02:21:03.809Z,59.10
2019-04-29T02:21:34.993Z,59.10
2019-04-29T02:22:06.570Z,59.10
2019-04-29T02:22:37.803Z,59.10
2019-04-29T02:23:09.054Z,59.10
2019-04-29T02:23:40.499Z,59.20
2019-04-29T02:24:11.683Z,59.20
2019-04-29T02:24:42.953Z,59.10
2019-04-29T02:25:14.238Z,59.20
2019-04-29T02:25:45.453Z,59.10
2019-04-29T02:26:16.734Z,59.10
2019-04-29T02:26:47.920Z,59.10
2019-04-29T02:27:19.107Z,59.10
2019-04-29T02:27:50.275Z,59.70
2019-04-29T02:28:21.601Z,59.10
2019-04-29T02:28:52.838Z,59.00
2019-04-29T02:29:24.371Z,59.00
2019-04-29T02:29:55.566Z,59.00
2019-04-29T02:30:26.804Z,59.00
2019-04-29T02:30:58.026Z,59.00
2019-04-29T02:31:29.344Z,59.00
2019-04-29T02:32:00.526Z,59.00
2019-04-29T02:32:31.702Z,59.00
2019-04-29T02:33:03.177Z,58.90
2019-04-29T02:33:34.836Z,58.90
2019-04-29T02:34:06.018Z,58.90
2019-04-29T02:34:37.197Z,58.90
2019-04-29T02:35:08.377Z,59.00
2019-04-29T02:35:39.588Z,58.90
2019-04-29T02:36:10.958Z,59.60
2019-04-29T02:36:42.144Z,58.90
2019-04-29T02:37:13.401Z,58.90
2019-04-29T02:37:44.951Z,58.90
2019-04-29T02:38:16.198Z,58.90
2019-04-29T02:38:47.467Z,58.90
2019-04-29T02:39:18.763Z,58.90
2019-04-29T02:39:49.965Z,58.90
2019-04-29T02:40:21.209Z,59.00
2019-04-29T02:40:52.477Z,58.90
2019-04-29T02:41:23.690Z,59.00
2019-04-29T02:41:54.870Z,58.90
2019-04-29T02:42:26.374Z,59.00
2019-04-29T02:42:57.707Z,58.90
2019-04-29T02:43:28.886Z,59.50
2019-04-29T02:44:00.178Z,58.90
2019-04-29T02:44:31.418Z,58.90
2019-04-29T02:45:02.593Z,58.90
2019-04-29T02:45:33.789Z,58.90
2019-04-29T02:46:05.300Z,58.90
2019-04-29T02:46:36.512Z,59.00
2019-04-29T02:47:08.234Z,58.90
2019-04-29T02:47:39.404Z,58.90
2019-04-29T02:48:10.720Z,58.90
2019-04-29T02:48:41.943Z,58.90
2019-04-29T02:49:13.130Z,58.90
2019-04-29T02:49:44.499Z,58.30
2019-04-29T02:50:16.080Z,58.90
2019-04-29T02:50:47.260Z,58.90
2019-04-29T02:51:18.436Z,58.90
2019-04-29T02:51:49.644Z,58.90
2019-04-29T02:52:20.823Z,59.00
2019-04-29T02:52:52.024Z,58.90
2019-04-29T02:53:23.201Z,58.90
2019-04-29T02:53:54.723Z,59.00
2019-04-29T02:54:26.252Z,58.90
2019-04-29T02:54:57.483Z,59.00
2019-04-29T02:55:28.653Z,59.60
2019-04-29T02:55:59.905Z,58.90
2019-04-29T02:56:31.106Z,59.00
2019-04-29T02:57:02.320Z,59.50
2019-04-29T02:57:33.582Z,58.90
2019-04-29T02:58:04.854Z,58.90
2019-04-29T02:58:36.025Z,58.90
2019-04-29T02:59:07.216Z,58.90
2019-04-29T02:59:38.806Z,59.00
2019-04-29T03:00:09.991Z,58.90
2019-04-29T03:00:41.165Z,58.90
2019-04-29T03:01:12.356Z,58.90
2019-04-29T03:01:43.947Z,58.90
2019-04-29T03:02:15.558Z,59.00
2019-04-29T03:02:46.756Z,58.90
2019-04-29T03:03:18.003Z,58.90
2019-04-29T03:03:49.219Z,58.90
2019-04-29T03:04:20.466Z,59.00
2019-04-29T03:04:51.932Z,58.90
2019-04-29T03:05:23.254Z,59.00
2019-04-29T03:05:54.423Z,59.00
2019-04-29T03:06:25.599Z,59.00
2019-04-29T03:06:56.835Z,59.00
2019-04-29T03:07:28.048Z,59.00
2019-04-29T03:07:59.679Z,59.00
2019-04-29T03:08:30.922Z,59.50
2019-04-29T03:09:02.262Z,58.90
2019-04-29T03:09:33.521Z,58.80
2019-04-29T03:10:04.808Z,58.80
2019-04-29T03:10:36.020Z,58.80
2019-04-29T03:11:07.306Z,58.80
2019-04-29T03:11:38.468Z,58.80
2019-04-29T03:12:09.688Z,58.80
2019-04-29T03:12:40.884Z,58.80
2019-04-29T03:13:12.097Z,58.70
2019-04-29T03:13:43.299Z,58.80
2019-04-29T03:14:14.477Z,58.70
2019-04-29T03:14:45.833Z,58.70
2019-04-29T03:15:17.009Z,58.70
2019-04-29T03:15:48.201Z,58.80
2019-04-29T03:16:19.773Z,58.60
2019-04-29T03:16:50.947Z,58.60
2019-04-29T03:17:22.190Z,58.70
2019-04-29T03:17:53.396Z,58.70
2019-04-29T03:18:24.739Z,58.80
2019-04-29T03:18:55.962Z,58.70
2019-04-29T03:19:27.142Z,59.10
2019-04-29T03:19:58.326Z,58.60
2019-04-29T03:20:29.510Z,58.70
2019-04-29T03:21:00.696Z,58.60
2019-04-29T03:21:31.884Z,58.70
2019-04-29T03:22:03.070Z,59.20
2019-04-29T03:22:34.346Z,58.70
2019-04-29T03:23:05.552Z,58.70
2019-04-29T03:23:36.740Z,58.70
2019-04-29T03:24:07.918Z,58.80
2019-04-29T03:24:39.174Z,58.70
2019-04-29T03:25:10.701Z,58.70
2019-04-29T03:25:41.886Z,58.70
2019-04-29T03:26:13.079Z,58.70
2019-04-29T03:26:44.330Z,58.70
2019-04-29T03:27:15.856Z,59.20
2019-04-29T03:27:47.055Z,58.70
2019-04-29T03:28:18.263Z,58.70
2019-04-29T03:28:49.441Z,58.70
2019-04-29T03:29:20.796Z,58.70
2019-04-29T03:29:51.981Z,58.70
2019-04-29T03:30:23.292Z,58.70
2019-04-29T03:30:54.501Z,58.80
2019-04-29T03:31:25.710Z,59.10
2019-04-29T03:31:56.962Z,58.70
2019-04-29T03:32:28.145Z,58.80
2019-04-29T03:32:59.697Z,58.70
2019-04-29T03:33:30.944Z,58.80
2019-04-29T03:34:02.131Z,58.80
2019-04-29T03:34:33.353Z,58.80
2019-04-29T03:35:04.540Z,58.70
2019-04-29T03:35:35.727Z,58.70
2019-04-29T03:36:07.227Z,58.70
2019-04-29T03:36:38.448Z,58.60
2019-04-29T03:37:09.725Z,58.60
2019-04-29T03:37:40.908Z,58.50
2019-04-29T03:38:12.430Z,58.50
2019-04-29T03:38:43.600Z,58.50
2019-04-29T03:39:14.966Z,58.50
2019-04-29T03:39:46.114Z,58.50
2019-04-29T03:40:17.337Z,58.50
2019-04-29T03:40:48.529Z,58.50
2019-04-29T03:41:20.058Z,58.40
2019-04-29T03:41:51.566Z,59.10
2019-04-29T03:42:22.964Z,58.40
2019-04-29T03:42:54.215Z,58.40
2019-04-29T03:43:25.392Z,58.40
2019-04-29T03:43:56.699Z,58.50
2019-04-29T03:44:27.894Z,58.40
2019-04-29T03:44:59.128Z,58.40
2019-04-29T03:45:30.316Z,58.40
2019-04-29T03:46:01.516Z,58.50
2019-04-29T03:46:32.919Z,58.50
2019-04-29T03:47:04.107Z,58.50
2019-04-29T03:47:35.494Z,58.50
2019-04-29T03:48:06.673Z,58.50
2019-04-29T03:48:38.018Z,58.50
2019-04-29T03:49:09.207Z,58.40
2019-04-29T03:49:40.797Z,58.50
2019-04-29T03:50:12.026Z,58.60
2019-04-29T03:50:43.324Z,58.40
2019-04-29T03:51:14.533Z,58.50
2019-04-29T03:51:46.018Z,58.60
2019-04-29T03:52:17.550Z,58.50
2019-04-29T03:52:48.766Z,58.50
2019-04-29T03:53:19.962Z,58.60
2019-04-29T03:53:51.465Z,58.60
2019-04-29T03:54:22.687Z,58.50
2019-04-29T03:54:53.929Z,58.50
2019-04-29T03:55:38.894Z,58.60
2019-04-29T03:55:58.399Z,59.20
2019-04-29T03:56:29.889Z,58.60
2019-04-29T03:57:01.074Z,58.60
2019-04-29T03:57:32.338Z,58.50
2019-04-29T03:58:03.539Z,58.50
2019-04-29T03:58:34.718Z,58.60
2019-04-29T03:59:05.900Z,58.70
2019-04-29T03:59:37.105Z,58.60
2019-04-29T04:00:08.390Z,58.70
2019-04-29T04:00:43.901Z,58.60
2019-04-29T04:01:12.489Z,58.60
2019-04-29T04:01:43.716Z,58.50
2019-04-29T04:02:14.894Z,58.60
2019-04-29T04:02:46.219Z,58.60
2019-04-29T04:03:17.482Z,58.60
2019-04-29T04:03:48.667Z,58.60
2019-04-29T04:04:19.836Z,58.50
2019-04-29T04:04:51.047Z,58.50
2019-04-29T04:05:22.283Z,58.60
2019-04-29T04:05:53.594Z,58.50
2019-04-29T04:06:25.121Z,58.60
2019-04-29T04:06:56.307Z,58.60
2019-04-29T04:07:27.559Z,58.50
2019-04-29T04:07:58.743Z,58.50
2019-04-29T04:08:29.966Z,58.30
2019-04-29T04:09:06.281Z,58.60
2019-04-29T04:09:34.071Z,58.60
2019-04-29T04:10:05.248Z,58.60
2019-04-29T04:10:36.447Z,58.60
2019-04-29T04:11:07.660Z,58.60
2019-04-29T04:11:38.837Z,58.60
2019-04-29T04:12:10.329Z,58.60
2019-04-29T04:12:41.530Z,58.60
2019-04-29T04:13:12.709Z,58.60
2019-04-29T04:13:43.889Z,58.70
2019-04-29T04:14:15.081Z,58.60
2019-04-29T04:14:46.274Z,58.70
2019-04-29T04:15:17.477Z,58.60
2019-04-29T04:15:48.682Z,58.60
2019-04-29T04:16:19.976Z,58.60
2019-04-29T04:16:51.555Z,58.60
2019-04-29T04:17:22.858Z,58.60
2019-04-29T04:17:54.241Z,58.70
2019-04-29T04:18:25.520Z,58.60
2019-04-29T04:18:56.895Z,58.70
2019-04-29T04:19:28.119Z,58.30
2019-04-29T04:19:59.308Z,58.60
2019-04-29T04:20:30.481Z,58.60
2019-04-29T04:21:01.664Z,58.60
2019-04-29T04:21:32.906Z,58.50
2019-04-29T04:22:04.124Z,58.40
2019-04-29T04:22:35.360Z,58.40
2019-04-29T04:23:06.537Z,58.40
2019-04-29T04:23:37.731Z,58.40
2019-04-29T04:24:08.894Z,58.30
2019-04-29T04:24:40.464Z,58.30
2019-04-29T04:25:11.759Z,58.30
2019-04-29T04:25:43.210Z,58.30
2019-04-29T04:26:14.469Z,58.30
2019-04-29T04:26:45.841Z,58.30
2019-04-29T04:27:17.023Z,58.30
2019-04-29T04:27:48.240Z,58.30
2019-04-29T04:28:19.845Z,58.30
2019-04-29T04:28:51.022Z,58.40
2019-04-29T04:29:22.207Z,58.40
2019-04-29T04:29:53.374Z,58.30
2019-04-29T04:30:24.567Z,58.40
2019-04-29T04:30:55.802Z,58.40
2019-04-29T04:31:26.987Z,58.40
2019-04-29T04:31:58.586Z,58.40
2019-04-29T04:32:30.063Z,58.40
2019-04-29T04:33:01.302Z,58.40
2019-04-29T04:33:32.936Z,58.50
2019-04-29T04:34:04.141Z,58.40
2019-04-29T04:34:35.329Z,58.40
2019-04-29T04:35:06.502Z,58.40
2019-04-29T04:35:37.934Z,59.10
2019-04-29T04:36:09.566Z,58.40
2019-04-29T04:36:40.742Z,58.40
2019-04-29T04:37:12.227Z,58.40
2019-04-29T04:37:43.433Z,58.40
2019-04-29T04:38:15.034Z,58.40
2019-04-29T04:38:46.264Z,58.80
2019-04-29T04:39:17.510Z,58.50
2019-04-29T04:39:48.691Z,58.40
2019-04-29T04:40:19.979Z,58.40
2019-04-29T04:40:51.163Z,58.40
2019-04-29T04:41:22.584Z,58.40
2019-04-29T04:41:53.837Z,58.40
2019-04-29T04:42:25.075Z,58.40
2019-04-29T04:42:56.291Z,58.40
2019-04-29T04:43:27.462Z,58.40
2019-04-29T04:43:58.635Z,58.50
2019-04-29T04:44:29.823Z,58.40
2019-04-29T04:45:01.339Z,58.50
2019-04-29T04:45:32.975Z,58.40
2019-04-29T04:46:04.172Z,58.40
2019-04-29T04:46:35.407Z,58.40
2019-04-29T04:47:06.595Z,58.40
2019-04-29T04:47:38.113Z,58.50
2019-04-29T04:48:09.384Z,58.50
2019-04-29T04:48:40.580Z,58.50
2019-04-29T04:49:11.828Z,58.40
2019-04-29T04:49:43.005Z,58.50
2019-04-29T04:50:14.324Z,58.40
2019-04-29T04:50:46.021Z,58.40
2019-04-29T04:51:17.257Z,58.40
2019-04-29T04:51:48.492Z,58.30
2019-04-29T04:52:19.676Z,58.30
2019-04-29T04:52:50.841Z,58.30
2019-04-29T04:53:22.097Z,58.30
2019-04-29T04:53:53.711Z,58.30
2019-04-29T04:54:24.880Z,58.30
2019-04-29T04:54:56.082Z,58.30
2019-04-29T04:55:27.260Z,58.30
2019-04-29T04:55:58.437Z,58.20
2019-04-29T04:56:29.625Z,58.20
2019-04-29T04:57:00.800Z,58.20
2019-04-29T04:57:32.079Z,58.20
2019-04-29T04:58:03.366Z,58.20
2019-04-29T04:58:34.570Z,58.20
2019-04-29T04:59:05.741Z,58.20
2019-04-29T04:59:36.948Z,58.20
2019-04-29T05:00:08.158Z,58.20
2019-04-29T05:00:39.730Z,58.20
2019-04-29T05:01:10.907Z,58.20
2019-04-29T05:01:42.245Z,58.20
2019-04-29T05:02:13.485Z,58.20
2019-04-29T05:02:44.665Z,58.20
2019-04-29T05:03:15.839Z,58.20
2019-04-29T05:03:47.039Z,58.20
2019-04-29T05:04:18.210Z,58.20
2019-04-29T05:04:49.424Z,58.20
2019-04-29T05:05:20.770Z,58.20
2019-04-29T05:05:53.760Z,58.20
2019-04-29T05:06:24.975Z,58.30
2019-04-29T05:06:56.463Z,58.30
2019-04-29T05:07:28.064Z,58.20
2019-04-29T05:07:59.557Z,58.20
2019-04-29T05:08:30.808Z,58.20
2019-04-29T05:09:01.998Z,58.30
2019-04-29T05:09:33.179Z,58.30
2019-04-29T05:10:04.361Z,58.30
2019-04-29T05:10:35.558Z,58.30
2019-04-29T05:11:06.982Z,58.30
2019-04-29T05:11:38.396Z,58.30
2019-04-29T05:12:09.919Z,58.30
2019-04-29T05:12:41.552Z,58.30
2019-04-29T05:13:26.673Z,58.30
2019-04-29T05:13:45.964Z,58.30
2019-04-29T05:14:17.187Z,58.30
2019-04-29T05:14:48.387Z,58.30
2019-04-29T05:15:19.977Z,58.30
2019-04-29T05:15:51.164Z,58.30
2019-04-29T05:16:22.350Z,58.30
2019-04-29T05:16:53.601Z,58.30
2019-04-29T05:17:24.798Z,58.30
2019-04-29T05:17:56.405Z,58.30
2019-04-29T05:18:27.585Z,58.40
2019-04-29T05:18:58.801Z,58.30
2019-04-29T05:19:30.107Z,58.30
2019-04-29T05:20:01.370Z,58.30
2019-04-29T05:20:32.927Z,58.30
2019-04-29T05:21:04.169Z,58.30
2019-04-29T05:21:35.351Z,58.30
2019-04-29T05:22:06.526Z,58.30
2019-04-29T05:22:37.787Z,58.40
2019-04-29T05:23:09.011Z,58.30
2019-04-29T05:23:41.722Z,58.30
2019-04-29T05:24:13.172Z,58.30
2019-04-29T05:24:44.839Z,58.30
2019-04-29T05:25:16.179Z,58.30
2019-04-29T05:25:47.367Z,58.30
2019-04-29T05:26:18.678Z,58.20
2019-04-29T05:26:49.851Z,58.20
2019-04-29T05:27:21.032Z,58.10
2019-04-29T05:27:53.212Z,58.10
2019-04-29T05:28:24.383Z,58.10
2019-04-29T05:28:55.660Z,58.10
2019-04-29T05:29:28.671Z,58.10
2019-04-29T05:29:59.753Z,58.10
2019-04-29T05:30:31.281Z,58.10
2019-04-29T05:31:02.488Z,58.10
2019-04-29T05:31:33.684Z,58.00
2019-04-29T05:32:04.855Z,58.00
2019-04-29T05:32:36.084Z,58.10
2019-04-29T05:33:07.265Z,58.00
2019-04-29T05:33:38.452Z,58.00
2019-04-29T05:34:09.758Z,58.00
2019-04-29T05:34:41.917Z,58.00
2019-04-29T05:35:13.833Z,58.00
2019-04-29T05:35:45.181Z,58.00
2019-04-29T05:36:16.380Z,58.30
2019-04-29T05:36:47.581Z,58.00
2019-04-29T05:37:18.846Z,58.00
2019-04-29T05:37:50.362Z,58.00
2019-04-29T05:38:21.894Z,58.10
2019-04-29T05:38:53.082Z,58.10
2019-04-29T05:39:24.265Z,58.10
2019-04-29T05:39:55.620Z,58.10
2019-04-29T05:40:26.807Z,58.00
2019-04-29T05:40:58.030Z,58.00
2019-04-29T05:41:30.120Z,58.10
2019-04-29T05:42:02.234Z,58.10
2019-04-29T05:42:33.450Z,58.10
2019-04-29T05:43:05.170Z,58.10
2019-04-29T05:43:36.566Z,58.10
2019-04-29T05:44:07.875Z,58.10
2019-04-29T05:44:39.459Z,58.10
2019-04-29T05:45:10.626Z,58.00
2019-04-29T05:45:46.253Z,58.00
2019-04-29T05:46:17.429Z,58.50
2019-04-29T05:46:47.671Z,58.00
2019-04-29T05:47:18.863Z,58.00
2019-04-29T05:47:52.376Z,58.00
2019-04-29T05:48:22.968Z,58.00
2019-04-29T05:48:54.217Z,58.10
2019-04-29T05:49:25.464Z,58.10
2019-04-29T05:49:56.713Z,58.10
2019-04-29T05:50:27.904Z,58.10
2019-04-29T05:50:59.228Z,58.10
2019-04-29T05:51:30.406Z,58.10
2019-04-29T05:52:03.149Z,58.10
2019-04-29T05:52:39.178Z,58.10
2019-04-29T05:53:11.553Z,58.10
2019-04-29T05:53:40.290Z,58.20
2019-04-29T05:54:11.478Z,58.10
2019-04-29T05:54:42.649Z,58.20
2019-04-29T05:55:15.395Z,58.10
2019-04-29T05:55:46.698Z,58.20
2019-04-29T05:56:17.877Z,58.20
2019-04-29T05:56:49.441Z,58.20
2019-04-29T05:57:25.234Z,58.20
2019-04-29T05:57:55.837Z,58.10
2019-04-29T05:58:26.430Z,58.20
2019-04-29T05:58:57.978Z,58.20
2019-04-29T05:59:29.186Z,58.20
2019-04-29T06:00:00.386Z,58.20
2019-04-29T06:00:31.590Z,58.20
2019-04-29T06:01:02.765Z,58.20
2019-04-29T06:01:34.013Z,58.10
2019-04-29T06:02:05.388Z,58.20
2019-04-29T06:02:38.858Z,58.20
2019-04-29T06:03:09.521Z,58.30
2019-04-29T06:03:42.662Z,58.20
2019-04-29T06:04:16.213Z,58.20
2019-04-29T06:04:48.206Z,58.20
2019-04-29T06:05:19.791Z,58.30
2019-04-29T06:05:50.962Z,58.20
2019-04-29T06:06:22.250Z,58.30
2019-04-29T06:06:53.440Z,58.90
2019-04-29T06:07:26.890Z,58.40
2019-04-29T06:08:00.946Z,58.20
2019-04-29T06:08:34.544Z,58.30
2019-04-29T06:09:03.373Z,58.20
2019-04-29T06:09:34.586Z,58.20
2019-04-29T06:10:06.149Z,58.10
2019-04-29T06:10:37.329Z,58.10
2019-04-29T06:11:08.508Z,58.00
2019-04-29T06:11:39.687Z,58.10
2019-04-29T06:12:10.949Z,58.00
2019-04-29T06:12:44.467Z,58.00
2019-04-29T06:13:15.495Z,58.00
2019-04-29T06:13:47.259Z,58.00
2019-04-29T06:14:18.493Z,58.00
2019-04-29T06:14:49.695Z,58.10
2019-04-29T06:15:20.905Z,58.00
2019-04-29T06:15:52.119Z,58.00
2019-04-29T06:16:23.296Z,58.00
2019-04-29T06:16:57.575Z,58.10
2019-04-29T06:17:27.417Z,58.00
2019-04-29T06:17:58.601Z,58.00
2019-04-29T06:18:29.813Z,58.00
2019-04-29T06:19:05.652Z,58.00
2019-04-29T06:19:35.130Z,58.00
2019-04-29T06:20:07.004Z,58.00
2019-04-29T06:20:38.444Z,58.70
2019-04-29T06:21:09.847Z,58.10
2019-04-29T06:21:41.432Z,58.00
2019-04-29T06:22:12.656Z,58.00
2019-04-29T06:22:43.847Z,58.00
2019-04-29T06:23:15.058Z,58.00
2019-04-29T06:23:46.235Z,58.00
2019-04-29T06:24:17.431Z,58.70
2019-04-29T06:24:48.614Z,58.10
2019-04-29T06:25:19.793Z,58.00
2019-04-29T06:25:51.282Z,58.00
2019-04-29T06:26:22.528Z,58.00
2019-04-29T06:26:53.712Z,58.00
2019-04-29T06:27:24.912Z,58.00
2019-04-29T06:27:56.091Z,58.00
2019-04-29T06:28:28.220Z,58.10
2019-04-29T06:28:59.579Z,58.10
2019-04-29T06:29:30.773Z,58.00
2019-04-29T06:30:03.108Z,58.10
2019-04-29T06:30:36.968Z,58.10
2019-04-29T06:31:07.917Z,58.10
2019-04-29T06:31:39.186Z,58.70
2019-04-29T06:32:10.433Z,58.10
2019-04-29T06:32:41.612Z,58.10
2019-04-29T06:33:12.805Z,58.10
2019-04-29T06:33:44.017Z,58.10
2019-04-29T06:34:15.229Z,58.20
2019-04-29T06:34:46.405Z,58.70
2019-04-29T06:35:17.585Z,58.00
2019-04-29T06:35:49.066Z,58.10
2019-04-29T06:36:20.339Z,58.70
2019-04-29T06:36:51.517Z,58.00
2019-04-29T06:37:22.886Z,58.00
2019-04-29T06:37:54.068Z,58.00
2019-04-29T06:38:25.312Z,58.10
2019-04-29T06:38:56.543Z,58.00
2019-04-29T06:39:27.727Z,58.00
2019-04-29T06:39:58.902Z,58.00
2019-04-29T06:40:30.738Z,57.90
2019-04-29T06:41:05.536Z,58.00
2019-04-29T06:41:35.906Z,58.10
2019-04-29T06:42:07.083Z,58.00
2019-04-29T06:42:38.281Z,58.10
2019-04-29T06:43:09.499Z,58.00
2019-04-29T06:43:40.730Z,58.10